<?xml version="1.0" encoding="UTF-8" standalone="no" ?>
<gpx xmlns="http://www.topografix.com/GPX/1/1" xmlns:xsi="http://www.w3.org/2001/XMLSchema-instance" xsi:schemaLocation="http://www.topografix.com/GPX/1/1 http://www.topografix.com/GPX/1/1/gpx.xsd" version="1.1" creator="VisuGPX - https://www.visugpx.com">
  <metadata>
    <name>cima   chauve 14/11</name>
    <desc><![CDATA[Bonne balade avec nico sur les traces des monts de l\'enfer!]]></desc>
  </metadata>
  <trk>
    <name><![CDATA[Cima chauve 14/11]]></name>
    <desc><![CDATA[(null)]]></desc>
    <trkseg>
      <trkpt lat="43.79469" lon="7.2453">
        <ele>411</ele>
        <time>2010-11-14T11:04:04Z</time>
      </trkpt>
      <trkpt lat="43.79469" lon="7.2453">
        <ele>411</ele>
        <time>2010-11-14T11:04:04Z</time>
      </trkpt>
      <trkpt lat="43.79469" lon="7.2453">
        <ele>411</ele>
        <time>2010-11-14T11:04:06Z</time>
      </trkpt>
      <trkpt lat="43.79371" lon="7.24487">
        <ele>600</ele>
        <time>2010-11-14T11:04:09Z</time>
      </trkpt>
      <trkpt lat="43.79371" lon="7.24487">
        <ele>600</ele>
        <time>2010-11-14T11:04:13Z</time>
      </trkpt>
      <trkpt lat="43.79332" lon="7.24466">
        <ele>634</ele>
        <time>2010-11-14T11:04:17Z</time>
      </trkpt>
      <trkpt lat="43.79335" lon="7.2447">
        <ele>642</ele>
        <time>2010-11-14T11:04:47Z</time>
      </trkpt>
      <trkpt lat="43.79412" lon="7.24403">
        <ele>670</ele>
        <time>2010-11-14T11:06:34Z</time>
      </trkpt>
      <trkpt lat="43.79488" lon="7.24332">
        <ele>675</ele>
        <time>2010-11-14T11:07:23Z</time>
      </trkpt>
      <trkpt lat="43.79551" lon="7.24241">
        <ele>685</ele>
        <time>2010-11-14T11:08:11Z</time>
      </trkpt>
      <trkpt lat="43.79562" lon="7.24208">
        <ele>688</ele>
        <time>2010-11-14T11:08:24Z</time>
      </trkpt>
      <trkpt lat="43.79537" lon="7.24328">
        <ele>704</ele>
        <time>2010-11-14T11:10:14Z</time>
      </trkpt>
      <trkpt lat="43.79534" lon="7.24333">
        <ele>705</ele>
        <time>2010-11-14T11:10:16Z</time>
      </trkpt>
      <trkpt lat="43.79479" lon="7.24432">
        <ele>713</ele>
        <time>2010-11-14T11:11:04Z</time>
      </trkpt>
      <trkpt lat="43.79476" lon="7.24436">
        <ele>713</ele>
        <time>2010-11-14T11:11:06Z</time>
      </trkpt>
      <trkpt lat="43.79408" lon="7.24519">
        <ele>719</ele>
        <time>2010-11-14T11:11:53Z</time>
      </trkpt>
      <trkpt lat="43.79404" lon="7.24524">
        <ele>719</ele>
        <time>2010-11-14T11:11:56Z</time>
      </trkpt>
      <trkpt lat="43.79354" lon="7.2463">
        <ele>723</ele>
        <time>2010-11-14T11:12:48Z</time>
      </trkpt>
      <trkpt lat="43.79323" lon="7.24749">
        <ele>731</ele>
        <time>2010-11-14T11:13:34Z</time>
      </trkpt>
      <trkpt lat="43.79339" lon="7.24817">
        <ele>733</ele>
        <time>2010-11-14T11:13:54Z</time>
      </trkpt>
      <trkpt lat="43.79424" lon="7.24863">
        <ele>728</ele>
        <time>2010-11-14T11:14:18Z</time>
      </trkpt>
      <trkpt lat="43.79441" lon="7.24872">
        <ele>729</ele>
        <time>2010-11-14T11:14:23Z</time>
      </trkpt>
      <trkpt lat="43.7953" lon="7.24902">
        <ele>727</ele>
        <time>2010-11-14T11:14:51Z</time>
      </trkpt>
      <trkpt lat="43.79534" lon="7.24903">
        <ele>727</ele>
        <time>2010-11-14T11:14:52Z</time>
      </trkpt>
      <trkpt lat="43.79624" lon="7.249">
        <ele>731</ele>
        <time>2010-11-14T11:15:30Z</time>
      </trkpt>
      <trkpt lat="43.7965" lon="7.24891">
        <ele>733</ele>
        <time>2010-11-14T11:15:46Z</time>
      </trkpt>
      <trkpt lat="43.79721" lon="7.24812">
        <ele>748</ele>
        <time>2010-11-14T11:16:37Z</time>
      </trkpt>
      <trkpt lat="43.79803" lon="7.24755">
        <ele>757</ele>
        <time>2010-11-14T11:17:24Z</time>
      </trkpt>
      <trkpt lat="43.79876" lon="7.24678">
        <ele>764</ele>
        <time>2010-11-14T11:18:08Z</time>
      </trkpt>
      <trkpt lat="43.79937" lon="7.24595">
        <ele>767</ele>
        <time>2010-11-14T11:18:39Z</time>
      </trkpt>
      <trkpt lat="43.8002" lon="7.24547">
        <ele>775</ele>
        <time>2010-11-14T11:19:29Z</time>
      </trkpt>
      <trkpt lat="43.80096" lon="7.24491">
        <ele>785</ele>
        <time>2010-11-14T11:20:27Z</time>
      </trkpt>
      <trkpt lat="43.80159" lon="7.24583">
        <ele>789</ele>
        <time>2010-11-14T11:21:15Z</time>
      </trkpt>
      <trkpt lat="43.80247" lon="7.24554">
        <ele>803</ele>
        <time>2010-11-14T11:22:30Z</time>
      </trkpt>
      <trkpt lat="43.803" lon="7.24534">
        <ele>811</ele>
        <time>2010-11-14T11:23:17Z</time>
      </trkpt>
      <trkpt lat="43.8039" lon="7.24517">
        <ele>819</ele>
        <time>2010-11-14T11:24:05Z</time>
      </trkpt>
      <trkpt lat="43.80481" lon="7.24506">
        <ele>824</ele>
        <time>2010-11-14T11:24:42Z</time>
      </trkpt>
      <trkpt lat="43.80572" lon="7.24506">
        <ele>827</ele>
        <time>2010-11-14T11:25:10Z</time>
      </trkpt>
      <trkpt lat="43.8058" lon="7.24504">
        <ele>828</ele>
        <time>2010-11-14T11:25:13Z</time>
      </trkpt>
      <trkpt lat="43.80672" lon="7.24491">
        <ele>831</ele>
        <time>2010-11-14T11:25:34Z</time>
      </trkpt>
      <trkpt lat="43.80688" lon="7.24489">
        <ele>832</ele>
        <time>2010-11-14T11:25:39Z</time>
      </trkpt>
      <trkpt lat="43.80781" lon="7.2449">
        <ele>833</ele>
        <time>2010-11-14T11:26:04Z</time>
      </trkpt>
      <trkpt lat="43.80784" lon="7.24492">
        <ele>833</ele>
        <time>2010-11-14T11:26:05Z</time>
      </trkpt>
      <trkpt lat="43.8087" lon="7.24532">
        <ele>835</ele>
        <time>2010-11-14T11:26:35Z</time>
      </trkpt>
      <trkpt lat="43.8092" lon="7.24517">
        <ele>836</ele>
        <time>2010-11-14T11:26:51Z</time>
      </trkpt>
      <trkpt lat="43.80845" lon="7.24444">
        <ele>829</ele>
        <time>2010-11-14T11:29:01Z</time>
      </trkpt>
      <trkpt lat="43.80773" lon="7.24363">
        <ele>816</ele>
        <time>2010-11-14T11:30:08Z</time>
      </trkpt>
      <trkpt lat="43.8077" lon="7.24359">
        <ele>816</ele>
        <time>2010-11-14T11:30:09Z</time>
      </trkpt>
      <trkpt lat="43.80703" lon="7.24271">
        <ele>814</ele>
        <time>2010-11-14T11:30:29Z</time>
      </trkpt>
      <trkpt lat="43.80686" lon="7.24147">
        <ele>799</ele>
        <time>2010-11-14T11:31:32Z</time>
      </trkpt>
      <trkpt lat="43.8069" lon="7.24151">
        <ele>780</ele>
        <time>2010-11-14T11:32:20Z</time>
      </trkpt>
      <trkpt lat="43.80616" lon="7.24079">
        <ele>760</ele>
        <time>2010-11-14T11:35:42Z</time>
      </trkpt>
      <trkpt lat="43.80578" lon="7.23995">
        <ele>695</ele>
        <time>2010-11-14T11:37:26Z</time>
      </trkpt>
      <trkpt lat="43.80652" lon="7.23921">
        <ele>685</ele>
        <time>2010-11-14T11:39:02Z</time>
      </trkpt>
      <trkpt lat="43.80653" lon="7.23919">
        <ele>685</ele>
        <time>2010-11-14T11:39:02Z</time>
      </trkpt>
      <trkpt lat="43.80739" lon="7.23869">
        <ele>665</ele>
        <time>2010-11-14T11:40:01Z</time>
      </trkpt>
      <trkpt lat="43.80764" lon="7.23746">
        <ele>646</ele>
        <time>2010-11-14T11:40:44Z</time>
      </trkpt>
      <trkpt lat="43.80833" lon="7.23665">
        <ele>631</ele>
        <time>2010-11-14T11:41:04Z</time>
      </trkpt>
      <trkpt lat="43.80876" lon="7.23555">
        <ele>617</ele>
        <time>2010-11-14T11:41:29Z</time>
      </trkpt>
      <trkpt lat="43.80928" lon="7.23454">
        <ele>600</ele>
        <time>2010-11-14T11:41:53Z</time>
      </trkpt>
      <trkpt lat="43.81009" lon="7.23392">
        <ele>570</ele>
        <time>2010-11-14T11:42:41Z</time>
      </trkpt>
      <trkpt lat="43.81009" lon="7.23392">
        <ele>570</ele>
        <time>2010-11-14T11:42:44Z</time>
      </trkpt>
      <trkpt lat="43.81087" lon="7.23328">
        <ele>559</ele>
        <time>2010-11-14T11:43:50Z</time>
      </trkpt>
      <trkpt lat="43.81089" lon="7.23325">
        <ele>559</ele>
        <time>2010-11-14T11:43:51Z</time>
      </trkpt>
      <trkpt lat="43.8112" lon="7.23208">
        <ele>557</ele>
        <time>2010-11-14T11:44:51Z</time>
      </trkpt>
      <trkpt lat="43.81166" lon="7.231">
        <ele>568</ele>
        <time>2010-11-14T11:49:13Z</time>
      </trkpt>
      <trkpt lat="43.81186" lon="7.23085">
        <ele>571</ele>
        <time>2010-11-14T11:49:28Z</time>
      </trkpt>
      <trkpt lat="43.8118" lon="7.23209">
        <ele>585</ele>
        <time>2010-11-14T11:50:52Z</time>
      </trkpt>
      <trkpt lat="43.8127" lon="7.23196">
        <ele>600</ele>
        <time>2010-11-14T11:52:22Z</time>
      </trkpt>
      <trkpt lat="43.81271" lon="7.2319">
        <ele>600</ele>
        <time>2010-11-14T11:52:23Z</time>
      </trkpt>
      <trkpt lat="43.81364" lon="7.23159">
        <ele>599</ele>
        <time>2010-11-14T11:52:51Z</time>
      </trkpt>
      <trkpt lat="43.8139" lon="7.23173">
        <ele>599</ele>
        <time>2010-11-14T11:52:54Z</time>
      </trkpt>
      <trkpt lat="43.81477" lon="7.23221">
        <ele>597</ele>
        <time>2010-11-14T11:53:04Z</time>
      </trkpt>
      <trkpt lat="43.81487" lon="7.23251">
        <ele>597</ele>
        <time>2010-11-14T11:53:08Z</time>
      </trkpt>
      <trkpt lat="43.81525" lon="7.23368">
        <ele>595</ele>
        <time>2010-11-14T11:53:24Z</time>
      </trkpt>
      <trkpt lat="43.81567" lon="7.23484">
        <ele>591</ele>
        <time>2010-11-14T11:53:37Z</time>
      </trkpt>
      <trkpt lat="43.81556" lon="7.23613">
        <ele>585</ele>
        <time>2010-11-14T11:53:55Z</time>
      </trkpt>
      <trkpt lat="43.81558" lon="7.23624">
        <ele>585</ele>
        <time>2010-11-14T11:53:56Z</time>
      </trkpt>
      <trkpt lat="43.81557" lon="7.2375">
        <ele>581</ele>
        <time>2010-11-14T11:54:19Z</time>
      </trkpt>
      <trkpt lat="43.81546" lon="7.23756">
        <ele>580</ele>
        <time>2010-11-14T11:54:23Z</time>
      </trkpt>
      <trkpt lat="43.81499" lon="7.23798">
        <ele>577</ele>
        <time>2010-11-14T11:55:59Z</time>
      </trkpt>
      <trkpt lat="43.81456" lon="7.23908">
        <ele>569</ele>
        <time>2010-11-14T11:56:40Z</time>
      </trkpt>
      <trkpt lat="43.81533" lon="7.23981">
        <ele>564</ele>
        <time>2010-11-14T11:57:49Z</time>
      </trkpt>
      <trkpt lat="43.81546" lon="7.24107">
        <ele>561</ele>
        <time>2010-11-14T11:58:25Z</time>
      </trkpt>
      <trkpt lat="43.81547" lon="7.24164">
        <ele>562</ele>
        <time>2010-11-14T11:58:48Z</time>
      </trkpt>
      <trkpt lat="43.81637" lon="7.24185">
        <ele>565</ele>
        <time>2010-11-14T11:59:18Z</time>
      </trkpt>
      <trkpt lat="43.81707" lon="7.24267">
        <ele>569</ele>
        <time>2010-11-14T11:59:45Z</time>
      </trkpt>
      <trkpt lat="43.81729" lon="7.24284">
        <ele>568</ele>
        <time>2010-11-14T12:00:00Z</time>
      </trkpt>
      <trkpt lat="43.81654" lon="7.24354">
        <ele>562</ele>
        <time>2010-11-14T12:01:13Z</time>
      </trkpt>
      <trkpt lat="43.81576" lon="7.24415">
        <ele>558</ele>
        <time>2010-11-14T12:01:46Z</time>
      </trkpt>
      <trkpt lat="43.81561" lon="7.24423">
        <ele>558</ele>
        <time>2010-11-14T12:02:15Z</time>
      </trkpt>
      <trkpt lat="43.81625" lon="7.24514">
        <ele>522</ele>
        <time>2010-11-14T12:03:56Z</time>
      </trkpt>
      <trkpt lat="43.81671" lon="7.24506">
        <ele>510</ele>
        <time>2010-11-14T12:04:20Z</time>
      </trkpt>
      <trkpt lat="43.81609" lon="7.24598">
        <ele>502</ele>
        <time>2010-11-14T12:06:56Z</time>
      </trkpt>
      <trkpt lat="43.81586" lon="7.24637">
        <ele>499</ele>
        <time>2010-11-14T12:07:19Z</time>
      </trkpt>
      <trkpt lat="43.81533" lon="7.24739">
        <ele>497</ele>
        <time>2010-11-14T12:10:17Z</time>
      </trkpt>
      <trkpt lat="43.81493" lon="7.24852">
        <ele>530</ele>
        <time>2010-11-14T12:13:40Z</time>
      </trkpt>
      <trkpt lat="43.81493" lon="7.24853">
        <ele>530</ele>
        <time>2010-11-14T12:13:42Z</time>
      </trkpt>
      <trkpt lat="43.81433" lon="7.24947">
        <ele>540</ele>
        <time>2010-11-14T12:15:44Z</time>
      </trkpt>
      <trkpt lat="43.81401" lon="7.24994">
        <ele>548</ele>
        <time>2010-11-14T12:16:31Z</time>
      </trkpt>
      <trkpt lat="43.81314" lon="7.24957">
        <ele>561</ele>
        <time>2010-11-14T12:17:58Z</time>
      </trkpt>
      <trkpt lat="43.81239" lon="7.24886">
        <ele>575</ele>
        <time>2010-11-14T12:19:36Z</time>
      </trkpt>
      <trkpt lat="43.81264" lon="7.25007">
        <ele>593</ele>
        <time>2010-11-14T12:22:11Z</time>
      </trkpt>
      <trkpt lat="43.81312" lon="7.25112">
        <ele>604</ele>
        <time>2010-11-14T12:23:26Z</time>
      </trkpt>
      <trkpt lat="43.81382" lon="7.25192">
        <ele>614</ele>
        <time>2010-11-14T12:24:35Z</time>
      </trkpt>
      <trkpt lat="43.81444" lon="7.25175">
        <ele>622</ele>
        <time>2010-11-14T12:25:14Z</time>
      </trkpt>
      <trkpt lat="43.81532" lon="7.25206">
        <ele>628</ele>
        <time>2010-11-14T12:26:15Z</time>
      </trkpt>
      <trkpt lat="43.81612" lon="7.25265">
        <ele>641</ele>
        <time>2010-11-14T12:27:25Z</time>
      </trkpt>
      <trkpt lat="43.81643" lon="7.2531">
        <ele>645</ele>
        <time>2010-11-14T12:27:52Z</time>
      </trkpt>
      <trkpt lat="43.81687" lon="7.2542">
        <ele>653</ele>
        <time>2010-11-14T12:28:49Z</time>
      </trkpt>
      <trkpt lat="43.81696" lon="7.25437">
        <ele>655</ele>
        <time>2010-11-14T12:28:59Z</time>
      </trkpt>
      <trkpt lat="43.81616" lon="7.2538">
        <ele>672</ele>
        <time>2010-11-14T12:35:15Z</time>
      </trkpt>
      <trkpt lat="43.81612" lon="7.25376">
        <ele>673</ele>
        <time>2010-11-14T12:35:23Z</time>
      </trkpt>
      <trkpt lat="43.81524" lon="7.25347">
        <ele>697</ele>
        <time>2010-11-14T12:37:50Z</time>
      </trkpt>
      <trkpt lat="43.81439" lon="7.25392">
        <ele>718</ele>
        <time>2010-11-14T12:39:57Z</time>
      </trkpt>
      <trkpt lat="43.81346" lon="7.25382">
        <ele>719</ele>
        <time>2010-11-14T12:40:17Z</time>
      </trkpt>
      <trkpt lat="43.81338" lon="7.25379">
        <ele>719</ele>
        <time>2010-11-14T12:40:19Z</time>
      </trkpt>
      <trkpt lat="43.81251" lon="7.25344">
        <ele>724</ele>
        <time>2010-11-14T12:41:15Z</time>
      </trkpt>
      <trkpt lat="43.81246" lon="7.25342">
        <ele>725</ele>
        <time>2010-11-14T12:41:21Z</time>
      </trkpt>
      <trkpt lat="43.81159" lon="7.25312">
        <ele>749</ele>
        <time>2010-11-14T12:45:35Z</time>
      </trkpt>
      <trkpt lat="43.81153" lon="7.25308">
        <ele>749</ele>
        <time>2010-11-14T12:45:40Z</time>
      </trkpt>
      <trkpt lat="43.81073" lon="7.2525">
        <ele>755</ele>
        <time>2010-11-14T12:46:56Z</time>
      </trkpt>
      <trkpt lat="43.81059" lon="7.25239">
        <ele>758</ele>
        <time>2010-11-14T12:47:16Z</time>
      </trkpt>
      <trkpt lat="43.80995" lon="7.25151">
        <ele>766</ele>
        <time>2010-11-14T12:48:18Z</time>
      </trkpt>
      <trkpt lat="43.80993" lon="7.25146">
        <ele>766</ele>
        <time>2010-11-14T12:48:20Z</time>
      </trkpt>
      <trkpt lat="43.80917" lon="7.25076">
        <ele>773</ele>
        <time>2010-11-14T12:49:21Z</time>
      </trkpt>
      <trkpt lat="43.80829" lon="7.25051">
        <ele>784</ele>
        <time>2010-11-14T12:50:38Z</time>
      </trkpt>
      <trkpt lat="43.80824" lon="7.25061">
        <ele>785</ele>
        <time>2010-11-14T12:50:45Z</time>
      </trkpt>
      <trkpt lat="43.8074" lon="7.25115">
        <ele>804</ele>
        <time>2010-11-14T12:56:02Z</time>
      </trkpt>
      <trkpt lat="43.80649" lon="7.25104">
        <ele>803</ele>
        <time>2010-11-14T12:56:20Z</time>
      </trkpt>
      <trkpt lat="43.80558" lon="7.25124">
        <ele>802</ele>
        <time>2010-11-14T12:56:40Z</time>
      </trkpt>
      <trkpt lat="43.80466" lon="7.25144">
        <ele>800</ele>
        <time>2010-11-14T12:57:00Z</time>
      </trkpt>
      <trkpt lat="43.80376" lon="7.25171">
        <ele>798</ele>
        <time>2010-11-14T12:57:19Z</time>
      </trkpt>
      <trkpt lat="43.80283" lon="7.25154">
        <ele>796</ele>
        <time>2010-11-14T12:57:32Z</time>
      </trkpt>
      <trkpt lat="43.80215" lon="7.25067">
        <ele>787</ele>
        <time>2010-11-14T12:57:50Z</time>
      </trkpt>
      <trkpt lat="43.80152" lon="7.24973">
        <ele>777</ele>
        <time>2010-11-14T12:58:09Z</time>
      </trkpt>
      <trkpt lat="43.80083" lon="7.24889">
        <ele>773</ele>
        <time>2010-11-14T12:58:28Z</time>
      </trkpt>
      <trkpt lat="43.80071" lon="7.24835">
        <ele>772</ele>
        <time>2010-11-14T12:58:34Z</time>
      </trkpt>
      <trkpt lat="43.80058" lon="7.2471">
        <ele>768</ele>
        <time>2010-11-14T12:58:54Z</time>
      </trkpt>
      <trkpt lat="43.80016" lon="7.24677">
        <ele>758</ele>
        <time>2010-11-14T12:59:15Z</time>
      </trkpt>
      <trkpt lat="43.79928" lon="7.24701">
        <ele>739</ele>
        <time>2010-11-14T13:00:45Z</time>
      </trkpt>
      <trkpt lat="43.79841" lon="7.24736">
        <ele>748</ele>
        <time>2010-11-14T13:02:03Z</time>
      </trkpt>
      <trkpt lat="43.79758" lon="7.24788">
        <ele>754</ele>
        <time>2010-11-14T13:03:04Z</time>
      </trkpt>
      <trkpt lat="43.7968" lon="7.24859">
        <ele>755</ele>
        <time>2010-11-14T13:03:22Z</time>
      </trkpt>
      <trkpt lat="43.79593" lon="7.24904">
        <ele>752</ele>
        <time>2010-11-14T13:03:35Z</time>
      </trkpt>
      <trkpt lat="43.79499" lon="7.24893">
        <ele>751</ele>
        <time>2010-11-14T13:03:46Z</time>
      </trkpt>
      <trkpt lat="43.7941" lon="7.24852">
        <ele>748</ele>
        <time>2010-11-14T13:03:57Z</time>
      </trkpt>
      <trkpt lat="43.79365" lon="7.24836">
        <ele>744</ele>
        <time>2010-11-14T13:04:17Z</time>
      </trkpt>
      <trkpt lat="43.79277" lon="7.24807">
        <ele>741</ele>
        <time>2010-11-14T13:05:01Z</time>
      </trkpt>
      <trkpt lat="43.79202" lon="7.24877">
        <ele>733</ele>
        <time>2010-11-14T13:05:27Z</time>
      </trkpt>
      <trkpt lat="43.79223" lon="7.24925">
        <ele>721</ele>
        <time>2010-11-14T13:06:13Z</time>
      </trkpt>
      <trkpt lat="43.79209" lon="7.25049">
        <ele>681</ele>
        <time>2010-11-14T13:09:18Z</time>
      </trkpt>
      <trkpt lat="43.79147" lon="7.25145">
        <ele>673</ele>
        <time>2010-11-14T13:09:42Z</time>
      </trkpt>
      <trkpt lat="43.79128" lon="7.25224">
        <ele>648</ele>
        <time>2010-11-14T13:13:15Z</time>
      </trkpt>
      <trkpt lat="43.79202" lon="7.25154">
        <ele>652</ele>
        <time>2010-11-14T13:14:02Z</time>
      </trkpt>
      <trkpt lat="43.79293" lon="7.25135">
        <ele>638</ele>
        <time>2010-11-14T13:14:31Z</time>
      </trkpt>
      <trkpt lat="43.79361" lon="7.25092">
        <ele>639</ele>
        <time>2010-11-14T13:15:38Z</time>
      </trkpt>
      <trkpt lat="43.79406" lon="7.252">
        <ele>651</ele>
        <time>2010-11-14T13:16:11Z</time>
      </trkpt>
      <trkpt lat="43.79409" lon="7.2521">
        <ele>651</ele>
        <time>2010-11-14T13:16:13Z</time>
      </trkpt>
      <trkpt lat="43.79405" lon="7.25337">
        <ele>625</ele>
        <time>2010-11-14T13:17:26Z</time>
      </trkpt>
      <trkpt lat="43.79394" lon="7.25462">
        <ele>609</ele>
        <time>2010-11-14T13:17:57Z</time>
      </trkpt>
      <trkpt lat="43.79396" lon="7.25464">
        <ele>609</ele>
        <time>2010-11-14T13:17:58Z</time>
      </trkpt>
      <trkpt lat="43.79487" lon="7.25455">
        <ele>598</ele>
        <time>2010-11-14T13:18:20Z</time>
      </trkpt>
      <trkpt lat="43.79518" lon="7.25533">
        <ele>576</ele>
        <time>2010-11-14T13:19:08Z</time>
      </trkpt>
      <trkpt lat="43.79428" lon="7.25549">
        <ele>571</ele>
        <time>2010-11-14T13:20:05Z</time>
      </trkpt>
      <trkpt lat="43.79414" lon="7.25545">
        <ele>570</ele>
        <time>2010-11-14T13:20:09Z</time>
      </trkpt>
      <trkpt lat="43.79338" lon="7.25477">
        <ele>561</ele>
        <time>2010-11-14T13:20:27Z</time>
      </trkpt>
      <trkpt lat="43.79303" lon="7.25359">
        <ele>563</ele>
        <time>2010-11-14T13:20:52Z</time>
      </trkpt>
      <trkpt lat="43.79303" lon="7.25334">
        <ele>562</ele>
        <time>2010-11-14T13:20:57Z</time>
      </trkpt>
      <trkpt lat="43.79212" lon="7.25337">
        <ele>570</ele>
        <time>2010-11-14T13:21:26Z</time>
      </trkpt>
      <trkpt lat="43.79207" lon="7.2534">
        <ele>570</ele>
        <time>2010-11-14T13:21:27Z</time>
      </trkpt>
      <trkpt lat="43.79117" lon="7.25376">
        <ele>571</ele>
        <time>2010-11-14T13:21:49Z</time>
      </trkpt>
      <trkpt lat="43.79047" lon="7.25379">
        <ele>573</ele>
        <time>2010-11-14T13:22:11Z</time>
      </trkpt>
      <trkpt lat="43.78958" lon="7.25355">
        <ele>568</ele>
        <time>2010-11-14T13:22:29Z</time>
      </trkpt>
      <trkpt lat="43.78906" lon="7.25253">
        <ele>567</ele>
        <time>2010-11-14T13:22:51Z</time>
      </trkpt>
      <trkpt lat="43.78818" lon="7.25227">
        <ele>574</ele>
        <time>2010-11-14T13:23:20Z</time>
      </trkpt>
      <trkpt lat="43.78805" lon="7.25221">
        <ele>576</ele>
        <time>2010-11-14T13:23:24Z</time>
      </trkpt>
      <trkpt lat="43.78714" lon="7.25262">
        <ele>580</ele>
        <time>2010-11-14T13:23:51Z</time>
      </trkpt>
      <trkpt lat="43.78624" lon="7.25267">
        <ele>585</ele>
        <time>2010-11-14T13:24:15Z</time>
      </trkpt>
      <trkpt lat="43.78532" lon="7.25268">
        <ele>588</ele>
        <time>2010-11-14T13:24:39Z</time>
      </trkpt>
      <trkpt lat="43.7844" lon="7.25286">
        <ele>591</ele>
        <time>2010-11-14T13:25:04Z</time>
      </trkpt>
      <trkpt lat="43.78354" lon="7.25329">
        <ele>595</ele>
        <time>2010-11-14T13:25:27Z</time>
      </trkpt>
      <trkpt lat="43.78275" lon="7.25393">
        <ele>595</ele>
        <time>2010-11-14T13:25:52Z</time>
      </trkpt>
      <trkpt lat="43.78198" lon="7.25323">
        <ele>596</ele>
        <time>2010-11-14T13:26:27Z</time>
      </trkpt>
      <trkpt lat="43.78117" lon="7.2527">
        <ele>597</ele>
        <time>2010-11-14T13:28:09Z</time>
      </trkpt>
      <trkpt lat="43.7811" lon="7.25273">
        <ele>597</ele>
        <time>2010-11-14T13:28:18Z</time>
      </trkpt>
      <trkpt lat="43.78029" lon="7.25331">
        <ele>608</ele>
        <time>2010-11-14T13:29:45Z</time>
      </trkpt>
      <trkpt lat="43.77958" lon="7.25409">
        <ele>620</ele>
        <time>2010-11-14T13:30:57Z</time>
      </trkpt>
      <trkpt lat="43.77908" lon="7.25514">
        <ele>645</ele>
        <time>2010-11-14T13:32:41Z</time>
      </trkpt>
      <trkpt lat="43.77865" lon="7.25623">
        <ele>682</ele>
        <time>2010-11-14T13:36:15Z</time>
      </trkpt>
      <trkpt lat="43.77863" lon="7.25625">
        <ele>683</ele>
        <time>2010-11-14T13:36:21Z</time>
      </trkpt>
      <trkpt lat="43.77775" lon="7.25649">
        <ele>727</ele>
        <time>2010-11-14T13:40:40Z</time>
      </trkpt>
      <trkpt lat="43.77773" lon="7.25652">
        <ele>728</ele>
        <time>2010-11-14T13:40:45Z</time>
      </trkpt>
      <trkpt lat="43.77723" lon="7.25756">
        <ele>736</ele>
        <time>2010-11-14T13:44:19Z</time>
      </trkpt>
      <trkpt lat="43.77672" lon="7.2586">
        <ele>746</ele>
        <time>2010-11-14T13:46:39Z</time>
      </trkpt>
      <trkpt lat="43.77615" lon="7.2596">
        <ele>760</ele>
        <time>2010-11-14T13:48:22Z</time>
      </trkpt>
      <trkpt lat="43.7755" lon="7.26008">
        <ele>761</ele>
        <time>2010-11-14T13:49:33Z</time>
      </trkpt>
      <trkpt lat="43.77507" lon="7.26047">
        <ele>778</ele>
        <time>2010-11-14T13:55:10Z</time>
      </trkpt>
      <trkpt lat="43.77507" lon="7.26047">
        <ele>778</ele>
        <time>2010-11-14T13:55:10Z</time>
      </trkpt>
      <trkpt lat="43.77507" lon="7.26047">
        <ele>778</ele>
        <time>2010-11-14T13:55:10Z</time>
      </trkpt>
      <trkpt lat="43.77516" lon="7.26026">
        <ele>771</ele>
        <time>2010-11-14T13:58:05Z</time>
      </trkpt>
      <trkpt lat="43.77567" lon="7.25923">
        <ele>775</ele>
        <time>2010-11-14T13:58:52Z</time>
      </trkpt>
      <trkpt lat="43.77555" lon="7.258">
        <ele>779</ele>
        <time>2010-11-14T13:59:35Z</time>
      </trkpt>
      <trkpt lat="43.77548" lon="7.25797">
        <ele>779</ele>
        <time>2010-11-14T13:59:38Z</time>
      </trkpt>
      <trkpt lat="43.77462" lon="7.25834">
        <ele>783</ele>
        <time>2010-11-14T14:00:23Z</time>
      </trkpt>
      <trkpt lat="43.77387" lon="7.25762">
        <ele>779</ele>
        <time>2010-11-14T14:01:09Z</time>
      </trkpt>
      <trkpt lat="43.77383" lon="7.25747">
        <ele>779</ele>
        <time>2010-11-14T14:01:18Z</time>
      </trkpt>
      <trkpt lat="43.77334" lon="7.25643">
        <ele>800</ele>
        <time>2010-11-14T14:03:45Z</time>
      </trkpt>
      <trkpt lat="43.77333" lon="7.25641">
        <ele>800</ele>
        <time>2010-11-14T14:03:47Z</time>
      </trkpt>
      <trkpt lat="43.77279" lon="7.25542">
        <ele>838</ele>
        <time>2010-11-14T14:07:31Z</time>
      </trkpt>
      <trkpt lat="43.77276" lon="7.25533">
        <ele>840</ele>
        <time>2010-11-14T14:07:42Z</time>
      </trkpt>
      <trkpt lat="43.77218" lon="7.25437">
        <ele>875</ele>
        <time>2010-11-14T14:11:27Z</time>
      </trkpt>
      <trkpt lat="43.77206" lon="7.25438">
        <ele>880</ele>
        <time>2010-11-14T14:12:00Z</time>
      </trkpt>
      <trkpt lat="43.77289" lon="7.25387">
        <ele>885</ele>
        <time>2010-11-14T14:23:55Z</time>
      </trkpt>
      <trkpt lat="43.77379" lon="7.25368">
        <ele>884</ele>
        <time>2010-11-14T14:24:32Z</time>
      </trkpt>
      <trkpt lat="43.77443" lon="7.25348">
        <ele>862</ele>
        <time>2010-11-14T14:27:15Z</time>
      </trkpt>
      <trkpt lat="43.77527" lon="7.253">
        <ele>854</ele>
        <time>2010-11-14T14:27:58Z</time>
      </trkpt>
      <trkpt lat="43.77607" lon="7.25238">
        <ele>827</ele>
        <time>2010-11-14T14:28:37Z</time>
      </trkpt>
      <trkpt lat="43.77652" lon="7.2513">
        <ele>795</ele>
        <time>2010-11-14T14:29:54Z</time>
      </trkpt>
      <trkpt lat="43.77725" lon="7.25055">
        <ele>777</ele>
        <time>2010-11-14T14:30:24Z</time>
      </trkpt>
      <trkpt lat="43.77727" lon="7.25053">
        <ele>776</ele>
        <time>2010-11-14T14:30:26Z</time>
      </trkpt>
      <trkpt lat="43.77792" lon="7.24967">
        <ele>752</ele>
        <time>2010-11-14T14:32:46Z</time>
      </trkpt>
      <trkpt lat="43.77782" lon="7.24891">
        <ele>718</ele>
        <time>2010-11-14T14:33:28Z</time>
      </trkpt>
      <trkpt lat="43.77693" lon="7.24922">
        <ele>709</ele>
        <time>2010-11-14T14:34:24Z</time>
      </trkpt>
      <trkpt lat="43.77603" lon="7.2491">
        <ele>712</ele>
        <time>2010-11-14T14:35:21Z</time>
      </trkpt>
      <trkpt lat="43.77515" lon="7.2494">
        <ele>714</ele>
        <time>2010-11-14T14:35:54Z</time>
      </trkpt>
      <trkpt lat="43.77425" lon="7.24942">
        <ele>717</ele>
        <time>2010-11-14T14:36:33Z</time>
      </trkpt>
      <trkpt lat="43.77335" lon="7.24961">
        <ele>725</ele>
        <time>2010-11-14T14:37:49Z</time>
      </trkpt>
      <trkpt lat="43.77244" lon="7.24977">
        <ele>734</ele>
        <time>2010-11-14T14:38:50Z</time>
      </trkpt>
      <trkpt lat="43.77152" lon="7.24991">
        <ele>736</ele>
        <time>2010-11-14T14:39:21Z</time>
      </trkpt>
      <trkpt lat="43.77061" lon="7.24983">
        <ele>739</ele>
        <time>2010-11-14T14:39:47Z</time>
      </trkpt>
      <trkpt lat="43.76969" lon="7.24998">
        <ele>742</ele>
        <time>2010-11-14T14:40:29Z</time>
      </trkpt>
      <trkpt lat="43.76882" lon="7.25037">
        <ele>741</ele>
        <time>2010-11-14T14:40:56Z</time>
      </trkpt>
      <trkpt lat="43.76845" lon="7.25056">
        <ele>739</ele>
        <time>2010-11-14T14:41:23Z</time>
      </trkpt>
      <trkpt lat="43.76755" lon="7.25042">
        <ele>722</ele>
        <time>2010-11-14T14:46:06Z</time>
      </trkpt>
      <trkpt lat="43.76745" lon="7.25048">
        <ele>723</ele>
        <time>2010-11-14T14:46:09Z</time>
      </trkpt>
      <trkpt lat="43.7666" lon="7.25095">
        <ele>716</ele>
        <time>2010-11-14T14:46:43Z</time>
      </trkpt>
      <trkpt lat="43.76568" lon="7.25118">
        <ele>710</ele>
        <time>2010-11-14T14:47:05Z</time>
      </trkpt>
      <trkpt lat="43.76533" lon="7.25131">
        <ele>708</ele>
        <time>2010-11-14T14:47:34Z</time>
      </trkpt>
      <trkpt lat="43.76442" lon="7.25122">
        <ele>686</ele>
        <time>2010-11-14T14:54:29Z</time>
      </trkpt>
      <trkpt lat="43.7636" lon="7.2518">
        <ele>684</ele>
        <time>2010-11-14T14:55:01Z</time>
      </trkpt>
      <trkpt lat="43.76351" lon="7.25193">
        <ele>683</ele>
        <time>2010-11-14T14:55:06Z</time>
      </trkpt>
      <trkpt lat="43.76261" lon="7.25212">
        <ele>677</ele>
        <time>2010-11-14T14:55:33Z</time>
      </trkpt>
      <trkpt lat="43.76193" lon="7.25225">
        <ele>664</ele>
        <time>2010-11-14T14:56:16Z</time>
      </trkpt>
      <trkpt lat="43.76108" lon="7.25272">
        <ele>649</ele>
        <time>2010-11-14T14:56:56Z</time>
      </trkpt>
      <trkpt lat="43.76021" lon="7.25314">
        <ele>639</ele>
        <time>2010-11-14T14:57:31Z</time>
      </trkpt>
      <trkpt lat="43.75939" lon="7.25366">
        <ele>633</ele>
        <time>2010-11-14T14:57:58Z</time>
      </trkpt>
      <trkpt lat="43.75901" lon="7.25392">
        <ele>615</ele>
        <time>2010-11-14T14:58:54Z</time>
      </trkpt>
      <trkpt lat="43.75812" lon="7.25408">
        <ele>608</ele>
        <time>2010-11-14T15:00:19Z</time>
      </trkpt>
      <trkpt lat="43.75764" lon="7.25301">
        <ele>571</ele>
        <time>2010-11-14T15:01:38Z</time>
      </trkpt>
      <trkpt lat="43.75753" lon="7.253">
        <ele>568</ele>
        <time>2010-11-14T15:01:44Z</time>
      </trkpt>
      <trkpt lat="43.75765" lon="7.25228">
        <ele>547</ele>
        <time>2010-11-14T15:02:36Z</time>
      </trkpt>
      <trkpt lat="43.75673" lon="7.25233">
        <ele>533</ele>
        <time>2010-11-14T15:03:12Z</time>
      </trkpt>
      <trkpt lat="43.75671" lon="7.25232">
        <ele>532</ele>
        <time>2010-11-14T15:03:42Z</time>
      </trkpt>
      <trkpt lat="43.7567" lon="7.25182">
        <ele>509</ele>
        <time>2010-11-14T15:03:58Z</time>
      </trkpt>
      <trkpt lat="43.7558" lon="7.25186">
        <ele>498</ele>
        <time>2010-11-14T15:04:31Z</time>
      </trkpt>
      <trkpt lat="43.75545" lon="7.25192">
        <ele>499</ele>
        <time>2010-11-14T15:04:47Z</time>
      </trkpt>
      <trkpt lat="43.75457" lon="7.25231">
        <ele>499</ele>
        <time>2010-11-14T15:05:36Z</time>
      </trkpt>
      <trkpt lat="43.75373" lon="7.25273">
        <ele>495</ele>
        <time>2010-11-14T15:05:55Z</time>
      </trkpt>
      <trkpt lat="43.75354" lon="7.253">
        <ele>494</ele>
        <time>2010-11-14T15:06:10Z</time>
      </trkpt>
      <trkpt lat="43.75262" lon="7.25304">
        <ele>490</ele>
        <time>2010-11-14T15:06:35Z</time>
      </trkpt>
      <trkpt lat="43.75183" lon="7.25365">
        <ele>492</ele>
        <time>2010-11-14T15:07:01Z</time>
      </trkpt>
      <trkpt lat="43.75125" lon="7.2546">
        <ele>490</ele>
        <time>2010-11-14T15:07:21Z</time>
      </trkpt>
      <trkpt lat="43.75109" lon="7.25497">
        <ele>484</ele>
        <time>2010-11-14T15:07:28Z</time>
      </trkpt>
      <trkpt lat="43.75022" lon="7.25536">
        <ele>477</ele>
        <time>2010-11-14T15:07:53Z</time>
      </trkpt>
      <trkpt lat="43.74931" lon="7.25555">
        <ele>470</ele>
        <time>2010-11-14T15:08:16Z</time>
      </trkpt>
      <trkpt lat="43.74841" lon="7.25566">
        <ele>469</ele>
        <time>2010-11-14T15:08:41Z</time>
      </trkpt>
      <trkpt lat="43.74751" lon="7.25581">
        <ele>465</ele>
        <time>2010-11-14T15:09:15Z</time>
      </trkpt>
      <trkpt lat="43.74662" lon="7.25615">
        <ele>465</ele>
        <time>2010-11-14T15:09:41Z</time>
      </trkpt>
      <trkpt lat="43.74572" lon="7.25624">
        <ele>465</ele>
        <time>2010-11-14T15:10:04Z</time>
      </trkpt>
      <trkpt lat="43.7448" lon="7.25626">
        <ele>463</ele>
        <time>2010-11-14T15:10:31Z</time>
      </trkpt>
      <trkpt lat="43.74475" lon="7.25629">
        <ele>463</ele>
        <time>2010-11-14T15:10:33Z</time>
      </trkpt>
      <trkpt lat="43.74385" lon="7.25648">
        <ele>456</ele>
        <time>2010-11-14T15:10:54Z</time>
      </trkpt>
      <trkpt lat="43.74377" lon="7.25648">
        <ele>456</ele>
        <time>2010-11-14T15:10:55Z</time>
      </trkpt>
      <trkpt lat="43.74287" lon="7.2562">
        <ele>451</ele>
        <time>2010-11-14T15:11:18Z</time>
      </trkpt>
      <trkpt lat="43.74212" lon="7.25699">
        <ele>446</ele>
        <time>2010-11-14T15:11:46Z</time>
      </trkpt>
      <trkpt lat="43.74184" lon="7.25735">
        <ele>439</ele>
        <time>2010-11-14T15:11:56Z</time>
      </trkpt>
      <trkpt lat="43.74235" lon="7.25839">
        <ele>426</ele>
        <time>2010-11-14T15:12:17Z</time>
      </trkpt>
      <trkpt lat="43.7428" lon="7.25948">
        <ele>423</ele>
        <time>2010-11-14T15:12:35Z</time>
      </trkpt>
      <trkpt lat="43.74281" lon="7.25956">
        <ele>423</ele>
        <time>2010-11-14T15:12:36Z</time>
      </trkpt>
      <trkpt lat="43.74315" lon="7.26072">
        <ele>414</ele>
        <time>2010-11-14T15:12:47Z</time>
      </trkpt>
      <trkpt lat="43.74352" lon="7.2619">
        <ele>404</ele>
        <time>2010-11-14T15:13:02Z</time>
      </trkpt>
      <trkpt lat="43.74357" lon="7.26208">
        <ele>403</ele>
        <time>2010-11-14T15:13:04Z</time>
      </trkpt>
      <trkpt lat="43.74354" lon="7.26337">
        <ele>395</ele>
        <time>2010-11-14T15:13:18Z</time>
      </trkpt>
      <trkpt lat="43.74373" lon="7.26462">
        <ele>379</ele>
        <time>2010-11-14T15:14:05Z</time>
      </trkpt>
      <trkpt lat="43.74396" lon="7.26586">
        <ele>379</ele>
        <time>2010-11-14T15:14:28Z</time>
      </trkpt>
      <trkpt lat="43.74423" lon="7.26708">
        <ele>375</ele>
        <time>2010-11-14T15:14:48Z</time>
      </trkpt>
      <trkpt lat="43.74428" lon="7.26835">
        <ele>371</ele>
        <time>2010-11-14T15:15:06Z</time>
      </trkpt>
      <trkpt lat="43.74405" lon="7.26961">
        <ele>370</ele>
        <time>2010-11-14T15:15:22Z</time>
      </trkpt>
      <trkpt lat="43.74382" lon="7.27087">
        <ele>369</ele>
        <time>2010-11-14T15:15:34Z</time>
      </trkpt>
      <trkpt lat="43.74355" lon="7.27206">
        <ele>365</ele>
        <time>2010-11-14T15:15:45Z</time>
      </trkpt>
      <trkpt lat="43.74293" lon="7.27297">
        <ele>360</ele>
        <time>2010-11-14T15:15:56Z</time>
      </trkpt>
      <trkpt lat="43.74231" lon="7.27389">
        <ele>354</ele>
        <time>2010-11-14T15:16:05Z</time>
      </trkpt>
      <trkpt lat="43.74144" lon="7.27438">
        <ele>349</ele>
        <time>2010-11-14T15:16:14Z</time>
      </trkpt>
      <trkpt lat="43.74107" lon="7.27452">
        <ele>348</ele>
        <time>2010-11-14T15:16:17Z</time>
      </trkpt>
      <trkpt lat="43.74022" lon="7.27492">
        <ele>344</ele>
        <time>2010-11-14T15:16:25Z</time>
      </trkpt>
      <trkpt lat="43.7393" lon="7.2748">
        <ele>340</ele>
        <time>2010-11-14T15:16:34Z</time>
      </trkpt>
      <trkpt lat="43.7386" lon="7.27402">
        <ele>335</ele>
        <time>2010-11-14T15:16:43Z</time>
      </trkpt>
      <trkpt lat="43.73877" lon="7.27526">
        <ele>309</ele>
        <time>2010-11-14T15:17:24Z</time>
      </trkpt>
      <trkpt lat="43.7384" lon="7.27644">
        <ele>309</ele>
        <time>2010-11-14T15:17:37Z</time>
      </trkpt>
      <trkpt lat="43.73921" lon="7.27705">
        <ele>302</ele>
        <time>2010-11-14T15:17:52Z</time>
      </trkpt>
      <trkpt lat="43.73863" lon="7.27804">
        <ele>290</ele>
        <time>2010-11-14T15:18:09Z</time>
      </trkpt>
      <trkpt lat="43.73795" lon="7.27839">
        <ele>282</ele>
        <time>2010-11-14T15:18:15Z</time>
      </trkpt>
      <trkpt lat="43.73712" lon="7.27886">
        <ele>275</ele>
        <time>2010-11-14T15:18:24Z</time>
      </trkpt>
      <trkpt lat="43.73633" lon="7.27947">
        <ele>267</ele>
        <time>2010-11-14T15:18:33Z</time>
      </trkpt>
      <trkpt lat="43.73542" lon="7.27913">
        <ele>263</ele>
        <time>2010-11-14T15:18:43Z</time>
      </trkpt>
      <trkpt lat="43.73534" lon="7.27906">
        <ele>263</ele>
        <time>2010-11-14T15:18:44Z</time>
      </trkpt>
      <trkpt lat="43.73451" lon="7.27848">
        <ele>261</ele>
        <time>2010-11-14T15:18:52Z</time>
      </trkpt>
      <trkpt lat="43.73366" lon="7.27793">
        <ele>255</ele>
        <time>2010-11-14T15:19:00Z</time>
      </trkpt>
      <trkpt lat="43.73334" lon="7.2772">
        <ele>251</ele>
        <time>2010-11-14T15:19:06Z</time>
      </trkpt>
      <trkpt lat="43.73278" lon="7.27621">
        <ele>235</ele>
        <time>2010-11-14T15:19:28Z</time>
      </trkpt>
      <trkpt lat="43.73254" lon="7.27605">
        <ele>233</ele>
        <time>2010-11-14T15:19:33Z</time>
      </trkpt>
      <trkpt lat="43.73165" lon="7.27573">
        <ele>232</ele>
        <time>2010-11-14T15:19:48Z</time>
      </trkpt>
      <trkpt lat="43.73073" lon="7.27588">
        <ele>231</ele>
        <time>2010-11-14T15:20:01Z</time>
      </trkpt>
      <trkpt lat="43.72987" lon="7.27632">
        <ele>226</ele>
        <time>2010-11-14T15:20:17Z</time>
      </trkpt>
    </trkseg>
  </trk>
</gpx>